createdAt,value
2022-09-07T00:00:50.852Z,3.42
2022-09-07T00:03:58.028Z,3.52
2022-09-07T00:07:03.915Z,3.50
2022-09-07T00:10:11.292Z,3.65
2022-09-07T00:13:16.426Z,4.25
2022-09-07T00:16:23.719Z,3.27
2022-09-07T00:19:34.324Z,3.75
2022-09-07T00:22:39.686Z,3.95
2022-09-07T00:25:50.082Z,3.98
2022-09-07T00:28:54.913Z,4.03
2022-09-07T00:32:01.033Z,4.10
2022-09-07T00:35:07.564Z,4.25
2022-09-07T00:38:13.807Z,3.75
2022-09-07T00:41:18.647Z,3.80
2022-09-07T00:45:18.554Z,4.25
2022-09-07T00:48:28.806Z,4.30
2022-09-07T00:51:51.209Z,3.62
2022-09-07T00:55:00.087Z,4.08
2022-09-07T00:58:07.207Z,3.80
2022-09-07T01:01:13.083Z,4.05
2022-09-07T01:04:18.682Z,4.28
2022-09-07T01:07:25.249Z,4.00
2022-09-07T01:10:30.683Z,3.60
2022-09-07T01:13:37.254Z,3.75
2022-09-07T01:17:06.904Z,3.52
2022-09-07T01:20:36.731Z,3.52
2022-09-07T01:24:02.391Z,3.10
2022-09-07T01:27:24.560Z,4.03
2022-09-07T01:30:36.705Z,3.85
2022-09-07T01:34:15.032Z,4.03
2022-09-07T01:37:53.932Z,3.52
2022-09-07T01:41:05.917Z,3.02
2022-09-07T01:47:38.827Z,2.98
2022-09-07T01:51:00.616Z,3.70
2022-09-07T01:54:15.206Z,4.10
2022-09-07T01:57:25.475Z,4.58
2022-09-07T02:00:33.200Z,4.37
2022-09-07T02:04:08.119Z,3.35
2022-09-07T02:07:27.196Z,3.62
2022-09-07T02:10:38.007Z,4.08
2022-09-07T02:13:53.587Z,3.72
2022-09-07T02:17:16.103Z,3.90
2022-09-07T02:20:28.154Z,3.97
2022-09-07T02:23:36.864Z,3.98
2022-09-07T02:26:43.830Z,4.00
2022-09-07T02:29:52.144Z,4.40
2022-09-07T02:32:57.087Z,4.33
2022-09-07T02:36:03.115Z,4.45
2022-09-07T02:39:09.059Z,4.65
2022-09-07T02:42:14.106Z,3.92
2022-09-07T02:45:20.429Z,4.60
2022-09-07T02:48:48.478Z,4.83
2022-09-07T02:52:27.867Z,4.17
2022-09-07T02:55:59.957Z,4.60
2022-09-07T02:59:46.390Z,4.15
2022-09-07T03:03:15.128Z,4.62
2022-09-07T03:06:26.335Z,4.15
2022-09-07T03:09:36.863Z,4.22
2022-09-07T03:13:00.567Z,4.65
2022-09-07T03:16:06.404Z,5.20
2022-09-07T03:19:13.152Z,4.72
2022-09-07T03:22:19.392Z,5.05
2022-09-07T03:25:24.943Z,5.42
2022-09-07T03:28:30.578Z,5.20
2022-09-07T03:31:35.099Z,5.25
2022-09-07T03:34:40.731Z,5.10
2022-09-07T03:37:45.701Z,5.03
2022-09-07T03:40:50.681Z,4.65
2022-09-07T03:43:56.245Z,4.70
2022-09-07T03:47:01.603Z,5.35
2022-09-07T03:50:08.014Z,5.10
2022-09-07T03:53:12.976Z,5.50
2022-09-07T03:56:22.658Z,5.42
2022-09-07T03:59:27.832Z,5.20
2022-09-07T04:02:34.337Z,5.25
2022-09-07T04:05:40.833Z,6.08
2022-09-07T04:08:47.460Z,8.20
2022-09-07T04:11:55.918Z,6.37
2022-09-07T04:15:02.903Z,6.47
2022-09-07T04:18:10.023Z,5.60
2022-09-07T04:21:17.275Z,6.25
2022-09-07T04:24:25.101Z,6.10
2022-09-07T04:27:30.412Z,6.28
2022-09-07T04:30:35.635Z,12.68
2022-09-07T04:33:41.192Z,6.33
2022-09-07T04:36:46.535Z,6.47
2022-09-07T04:39:52.912Z,6.08
2022-09-07T04:43:00.453Z,5.83
2022-09-07T04:46:05.679Z,5.22
2022-09-07T04:49:12.595Z,5.67
2022-09-07T04:52:18.026Z,7.92
2022-09-07T04:55:24.053Z,5.60
2022-09-07T04:58:29.931Z,5.03
2022-09-07T05:01:38.487Z,5.42
2022-09-07T05:04:43.676Z,5.75
2022-09-07T05:07:50.194Z,5.62
2022-09-07T05:11:09.866Z,5.17
2022-09-07T05:14:18.791Z,4.97
2022-09-07T05:17:26.875Z,4.12
2022-09-07T05:20:33.983Z,4.00
2022-09-07T05:23:41.662Z,4.55
2022-09-07T05:26:51.432Z,4.30
2022-09-07T05:30:08.282Z,3.98
2022-09-07T05:33:16.595Z,4.20
2022-09-07T05:36:23.095Z,3.77
2022-09-07T05:39:29.450Z,3.45
2022-09-07T05:42:38.232Z,3.33
2022-09-07T05:45:44.737Z,3.87
2022-09-07T05:48:50.694Z,4.10
2022-09-07T05:51:58.513Z,3.80
2022-09-07T05:55:26.213Z,2.75
2022-09-07T05:58:13.840Z,2.92
2022-09-07T06:01:22.038Z,2.30
2022-09-07T06:04:30.169Z,2.62
2022-09-07T06:07:36.554Z,2.70
2022-09-07T06:10:43.851Z,2.25
2022-09-07T06:13:53.729Z,3.08
2022-09-07T06:17:03.524Z,2.30
2022-09-07T06:20:10.057Z,2.50
2022-09-07T06:26:45.825Z,2.00
2022-09-07T06:29:54.302Z,2.00
2022-09-07T06:33:00.668Z,2.12
2022-09-07T06:36:13.573Z,2.02
2022-09-07T06:39:21.919Z,1.52
2022-09-07T06:42:43.296Z,1.57
2022-09-07T06:45:51.994Z,1.92
2022-09-07T06:48:58.595Z,1.47
2022-09-07T06:52:04.949Z,1.45
2022-09-07T06:55:12.438Z,1.75
2022-09-07T06:58:22.261Z,1.42
2022-09-07T07:01:35.023Z,1.80
2022-09-07T07:07:48.057Z,1.50
2022-09-07T07:10:56.343Z,1.67
2022-09-07T07:14:04.148Z,1.72
2022-09-07T07:17:11.579Z,1.45
2022-09-07T07:20:31.881Z,2.85
2022-09-07T07:23:40.101Z,1.67
2022-09-07T07:26:51.005Z,1.30
2022-09-07T07:30:00.081Z,1.37
2022-09-07T07:33:09.209Z,1.10
2022-09-07T07:36:27.638Z,1.20
2022-09-07T07:42:42.077Z,1.00
2022-09-07T07:48:54.383Z,1.25
2022-09-07T07:58:19.641Z,1.00
2022-09-07T08:01:30.715Z,1.00
2022-09-07T08:04:41.597Z,1.10
2022-09-07T08:07:44.636Z,1.07
2022-09-07T08:10:54.901Z,1.25
2022-09-07T08:14:03.210Z,1.10
2022-09-07T08:17:11.185Z,1.20
2022-09-07T08:20:18.265Z,1.25
2022-09-07T08:23:24.676Z,1.25
2022-09-07T08:26:32.859Z,0.90
2022-09-07T08:29:42.149Z,1.10
2022-09-07T08:32:50.223Z,0.80
2022-09-07T08:36:14.462Z,1.60
2022-09-07T08:39:20.801Z,1.05
2022-09-07T08:42:55.682Z,1.10
2022-09-07T08:46:06.133Z,0.90
2022-09-07T08:49:12.217Z,0.90
2022-09-07T08:52:28.267Z,1.15
2022-09-07T08:55:51.312Z,1.30
2022-09-07T08:59:07.184Z,1.10
2022-09-07T09:02:32.649Z,0.85
2022-09-07T09:05:42.224Z,0.78
2022-09-07T09:09:15.703Z,0.85
2022-09-07T09:12:50.462Z,1.00
2022-09-07T09:16:31.562Z,1.40
2022-09-07T09:19:58.933Z,1.07
2022-09-07T09:23:08.941Z,0.90
2022-09-07T09:26:18.096Z,0.88
2022-09-07T09:29:36.085Z,0.82
2022-09-07T09:32:56.041Z,1.20
2022-09-07T09:36:07.490Z,1.27
2022-09-07T09:39:13.801Z,1.05
2022-09-07T09:42:30.146Z,0.85
2022-09-07T09:48:52.415Z,1.10
2022-09-07T09:55:33.205Z,1.15
2022-09-07T10:01:35.509Z,0.90
2022-09-07T10:04:38.698Z,1.10
2022-09-07T10:07:40.744Z,0.82
2022-09-07T10:10:32.951Z,1.30
2022-09-07T10:13:39.041Z,1.20
2022-09-07T10:16:34.470Z,2.62
2022-09-07T10:19:52.991Z,1.45
2022-09-07T10:23:08.761Z,1.47
2022-09-07T10:26:15.657Z,1.30
2022-09-07T10:29:36.029Z,1.50
2022-09-07T10:33:15.452Z,1.40
2022-09-07T10:36:44.457Z,2.52
2022-09-07T10:40:00.412Z,1.65
2022-09-07T10:43:23.519Z,1.40
2022-09-07T10:47:01.501Z,1.17
2022-09-07T10:50:28.943Z,1.22
2022-09-07T10:53:44.890Z,1.20
2022-09-07T10:56:55.761Z,1.17
2022-09-07T11:00:24.188Z,1.60
2022-09-07T11:03:53.798Z,1.30
2022-09-07T11:07:07.007Z,1.20
2022-09-07T11:10:17.873Z,1.37
2022-09-07T11:13:28.783Z,1.55
2022-09-07T11:16:52.151Z,1.20
2022-09-07T11:20:09.736Z,1.37
2022-09-07T11:23:40.784Z,1.27
2022-09-07T11:26:48.875Z,1.20
2022-09-07T11:30:06.786Z,1.37
2022-09-07T11:33:30.546Z,1.40
2022-09-07T11:36:36.701Z,1.00
2022-09-07T11:40:13.257Z,1.32
2022-09-07T11:43:26.410Z,1.37
2022-09-07T11:46:35.751Z,1.50
2022-09-07T11:49:45.382Z,1.17
2022-09-07T11:52:54.940Z,1.40
2022-09-07T11:56:02.712Z,1.50
2022-09-07T11:59:23.774Z,1.50
2022-09-07T12:03:00.791Z,2.25
2022-09-07T12:06:50.899Z,1.60
2022-09-07T12:10:17.968Z,1.25
2022-09-07T12:13:49.370Z,1.40
2022-09-07T12:17:24.856Z,1.37
2022-09-07T12:20:42.279Z,1.47
2022-09-07T12:23:49.131Z,1.82
2022-09-07T12:27:02.055Z,1.40
2022-09-07T12:30:25.544Z,1.67
2022-09-07T12:33:47.242Z,1.75
2022-09-07T12:37:21.925Z,1.70
2022-09-07T12:40:47.847Z,1.45
2022-09-07T12:44:07.666Z,1.50
2022-09-07T12:47:41.156Z,1.57
2022-09-07T12:50:56.048Z,2.40
2022-09-07T12:54:17.154Z,1.70
2022-09-07T13:01:07.943Z,1.70
2022-09-07T13:04:42.876Z,1.50
2022-09-07T13:08:37.226Z,7.75
2022-09-07T13:11:51.498Z,4.55
2022-09-07T13:15:00.864Z,2.90
2022-09-07T13:18:16.610Z,1.80
2022-09-07T13:21:28.813Z,6.00
2022-09-07T13:25:03.429Z,5.97
2022-09-07T13:28:33.780Z,2.17
2022-09-07T13:36:48.753Z,1.77
2022-09-07T13:40:01.837Z,1.52
2022-09-07T13:43:10.338Z,2.02
2022-09-07T13:46:22.791Z,1.40
2022-09-07T13:49:43.162Z,1.47
2022-09-07T13:52:59.149Z,2.47
2022-09-07T13:56:43.326Z,13.45
2022-09-07T13:59:52.736Z,5.75
2022-09-07T14:03:01.457Z,6.80
2022-09-07T14:06:48.754Z,2.37
2022-09-07T14:09:58.549Z,4.35
2022-09-07T14:13:09.970Z,3.30
2022-09-07T14:16:15.834Z,37.63
2022-09-07T14:19:34.589Z,7.90
2022-09-07T14:22:52.078Z,3.35
2022-09-07T14:29:11.886Z,1.90
2022-09-07T14:32:19.056Z,3.08
2022-09-07T14:35:33.522Z,2.20
2022-09-07T14:41:59.029Z,4.83
2022-09-07T14:45:10.774Z,2.77
2022-09-07T14:48:32.404Z,2.30
2022-09-07T14:51:44.667Z,1.87
2022-09-07T14:54:50.781Z,4.58
2022-09-07T14:57:57.002Z,2.65
2022-09-07T15:04:24.766Z,4.58
2022-09-07T15:07:54.898Z,3.30
2022-09-07T15:14:17.873Z,3.87
2022-09-07T15:17:44.569Z,5.60
2022-09-07T15:20:58.933Z,4.22
2022-09-07T15:24:11.035Z,3.33
2022-09-07T15:27:19.019Z,4.20
2022-09-07T15:30:26.811Z,5.78
2022-09-07T15:33:33.145Z,6.67
2022-09-07T15:36:40.886Z,7.45
2022-09-07T15:39:48.461Z,17.42
2022-09-07T15:43:00.333Z,10.93
2022-09-07T15:46:04.627Z,10.78
2022-09-07T15:49:12.468Z,7.42
2022-09-07T15:52:21.860Z,6.10
2022-09-07T15:55:30.595Z,6.97
2022-09-07T15:58:35.858Z,6.35
2022-09-07T16:01:58.175Z,6.40
2022-09-07T16:04:51.617Z,5.42
2022-09-07T16:11:08.573Z,5.90
2022-09-07T16:14:18.324Z,7.03
2022-09-07T16:17:27.363Z,7.92
2022-09-07T16:20:33.945Z,7.08
2022-09-07T16:23:40.588Z,8.98
2022-09-07T16:26:46.471Z,12.07
2022-09-07T16:29:52.155Z,17.85
2022-09-07T16:32:58.760Z,24.90
2022-09-07T16:36:16.416Z,31.37
2022-09-07T16:39:24.265Z,32.95
2022-09-07T16:42:36.584Z,38.02
2022-09-07T16:48:48.781Z,51.25
2022-09-07T16:51:54.668Z,49.38
2022-09-07T16:55:00.661Z,48.35
2022-09-07T17:01:14.950Z,38.10
2022-09-07T17:04:21.252Z,35.90
2022-09-07T17:07:28.363Z,36.98
2022-09-07T17:10:36.028Z,39.65
2022-09-07T17:13:42.715Z,45.78
2022-09-07T17:16:52.433Z,45.92
2022-09-07T17:19:58.760Z,49.33
2022-09-07T17:23:06.601Z,47.70
2022-09-07T17:26:22.356Z,49.58
2022-09-07T17:29:27.808Z,44.30
2022-09-07T17:32:36.280Z,42.35
2022-09-07T17:35:42.036Z,43.10
2022-09-07T17:41:58.835Z,80.67
2022-09-07T17:45:04.691Z,107.20
2022-09-07T17:48:10.462Z,193.90
2022-09-07T17:51:23.163Z,161.95
2022-09-07T17:54:33.285Z,163.92
2022-09-07T17:57:40.455Z,173.35
2022-09-07T18:00:48.269Z,156.72
2022-09-07T18:03:54.175Z,110.32
2022-09-07T18:07:04.248Z,117.35
2022-09-07T18:10:10.845Z,103.72
2022-09-07T18:13:25.518Z,82.47
2022-09-07T18:16:38.438Z,159.87
2022-09-07T18:19:48.096Z,85.53
2022-09-07T18:23:01.675Z,72.32
2022-09-07T18:26:13.866Z,87.62
2022-09-07T18:29:32.800Z,93.00
2022-09-07T18:32:29.959Z,93.10
2022-09-07T18:35:37.600Z,88.92
2022-09-07T18:38:46.985Z,76.55
2022-09-07T18:42:28.654Z,71.40
2022-09-07T18:45:41.680Z,64.60
2022-09-07T18:48:50.594Z,63.95
2022-09-07T18:55:06.465Z,60.35
2022-09-07T18:58:15.266Z,64.75
2022-09-07T19:01:24.817Z,56.73
2022-09-07T19:07:40.569Z,43.78
2022-09-07T19:10:50.907Z,44.65
2022-09-07T19:13:56.685Z,37.38
2022-09-07T19:17:03.287Z,37.38
2022-09-07T19:20:09.317Z,41.05
2022-09-07T19:23:16.207Z,38.67
2022-09-07T19:26:21.644Z,37.90
2022-09-07T19:29:29.683Z,37.98
2022-09-07T19:32:35.594Z,34.78
2022-09-07T19:35:41.706Z,33.78
2022-09-07T19:38:50.009Z,33.75
2022-09-07T19:41:55.257Z,31.85
2022-09-07T19:45:01.560Z,30.35
2022-09-07T19:48:09.582Z,27.45
2022-09-07T19:51:20.187Z,29.48
2022-09-07T19:54:25.411Z,32.30
2022-09-07T19:57:31.614Z,31.30
2022-09-07T20:00:37.945Z,31.48
2022-09-07T20:03:46.687Z,33.80
2022-09-07T20:06:54.871Z,33.18
2022-09-07T20:10:01.477Z,28.57
2022-09-07T20:13:07.794Z,27.70
2022-09-07T20:16:14.141Z,22.67
2022-09-07T20:19:22.418Z,26.00
2022-09-07T20:22:28.777Z,26.97
2022-09-07T20:25:36.359Z,24.37
2022-09-07T20:28:44.635Z,22.95
2022-09-07T20:31:51.066Z,21.25
2022-09-07T20:34:59.818Z,17.62
2022-09-07T20:38:07.825Z,49.27
2022-09-07T20:41:15.291Z,25.05
2022-09-07T20:44:22.890Z,21.27
2022-09-07T20:47:28.643Z,16.42
2022-09-07T20:50:34.986Z,15.38
2022-09-07T20:53:46.156Z,15.53
2022-09-07T20:56:52.681Z,14.03
2022-09-07T21:00:00.033Z,57.73
2022-09-07T21:03:07.210Z,27.05
2022-09-07T21:06:18.162Z,15.50
2022-09-07T21:09:23.603Z,13.20
2022-09-07T21:12:30.691Z,13.03
2022-09-07T21:15:36.737Z,13.80
2022-09-07T21:18:43.201Z,21.45
2022-09-07T21:21:57.174Z,22.95
2022-09-07T21:25:03.339Z,22.65
2022-09-07T21:28:10.505Z,23.35
2022-09-07T21:31:20.242Z,24.57
2022-09-07T21:34:26.222Z,24.43
2022-09-07T21:37:31.478Z,21.10
2022-09-07T21:40:37.558Z,21.27
2022-09-07T21:43:43.921Z,20.70
2022-09-07T21:46:52.771Z,20.10
2022-09-07T21:49:52.066Z,19.92
2022-09-07T21:52:59.224Z,19.55
2022-09-07T21:56:11.103Z,19.85
2022-09-07T21:59:16.840Z,17.73
2022-09-07T22:02:23.365Z,17.62
2022-09-07T22:05:28.840Z,18.15
2022-09-07T22:08:34.760Z,16.85
2022-09-07T22:11:45.904Z,16.90
2022-09-07T22:14:52.981Z,15.32
2022-09-07T22:17:59.094Z,15.18
2022-09-07T22:21:17.432Z,16.25
2022-09-07T22:24:26.303Z,13.30
2022-09-07T22:27:31.525Z,13.72
2022-09-07T22:30:37.299Z,12.70
2022-09-07T22:33:43.076Z,13.30
2022-09-07T22:36:54.986Z,13.60
2022-09-07T22:40:02.012Z,13.03
2022-09-07T22:43:07.700Z,13.50
2022-09-07T22:46:16.221Z,12.43
2022-09-07T22:49:22.354Z,12.43
2022-09-07T22:52:31.152Z,11.12
2022-09-07T22:55:36.297Z,11.97
2022-09-07T22:58:41.763Z,11.25
2022-09-07T23:01:47.585Z,11.50
2022-09-07T23:04:55.533Z,10.65
2022-09-07T23:08:03.647Z,10.70
2022-09-07T23:11:08.448Z,11.25
2022-09-07T23:14:16.941Z,10.80
2022-09-07T23:17:23.235Z,11.30
2022-09-07T23:20:28.687Z,12.03
2022-09-07T23:23:36.168Z,10.68
2022-09-07T23:26:43.085Z,11.43
2022-09-07T23:29:48.506Z,11.18
2022-09-07T23:32:55.171Z,10.72
2022-09-07T23:36:14.297Z,11.15
2022-09-07T23:39:21.058Z,10.43
2022-09-07T23:42:26.923Z,10.40
2022-09-07T23:45:32.369Z,10.03
2022-09-07T23:48:38.085Z,10.88
2022-09-07T23:51:44.164Z,10.82
2022-09-07T23:54:49.612Z,11.15
2022-09-07T23:57:55.866Z,10.18
